sim
Sign-in with your pilot id or email,
or register
Callsign
Passwort

Schedule Details

Flight Number: OEO4069
Departure: Brussels Airport (EBBR) at 06:55
Arrival: Munich Airport (EDDM) at 08:20

Weather Information
Getting current METAR information for EBBR 221950Z 20004KT CAVOK 15/09 Q1007 NOSIG
Getting current METAR information for EDDM 221950Z VRB01KT CAVOK 17/15 Q1010 NOSIG

Schedule Frequency

Route Map